Corozal, Belize
Current Conditions -  °F | °C
As of 5:40 PM on Sunday 25 Jan 2015 (Local Time) from MMCM Reporting Station
Scattered Clouds Scattered Clouds  
Wind Chill: 75°   Ceiling: Unl
Heat Index: 75°   Visibility: 7mi
Dew Point: 66°   Wind: 0mph
Humidity: 73%   Direction: NA
Pressure: 30.02"   Gusts: NA
Location:  18.4°N, 88.39°W
Report Text: MMCM 252340Z 00000KT 7SM SCT300 24/19 A3002 RMK SLP167 5//// 964 8/009 RTS
Loading
Personal Weather Stations






























Interactive Weather Map New forecast layout! Learn more

10-Day Weather Forecast

Advertisements
Track Severe Weather on mobile